Time;durP1;ratioP1;P1;durP2;ratioP2;P2;SDS_P1;SDS_P2;PMS_P1;PMS_P2;Temp;Humidity;BMP_temperature;BMP_pressure;BME280_temperature;BME280_humidity;BME280_pressure;Samples;Min_cycle;Max_cycle;Signal;HPM_P1;HPM_P2
2021/10/16 00:02:04;;;;;;;11.68;2.70;;;;;;;10.89;58.61;100349.78;5092730;28;20043;-80
2021/10/16 00:04:31;;;;;;;11.05;2.65;;;;;;;10.91;58.06;100349.69;5092577;28;20048;-80
2021/10/16 00:07:10;;;;;;;10.80;2.65;;;;;;;10.87;58.98;100350.78;5092277;28;20059;-80
2021/10/16 00:09:37;;;;;;;10.20;2.13;;;;;;;10.89;58.30;100355.06;5093052;28;20054;-80
2021/10/16 00:12:15;;;;;;;10.45;2.42;;;;;;;10.85;58.90;100356.13;5092897;28;20416;-80
2021/10/16 00:14:43;;;;;;;9.13;2.40;;;;;;;10.88;58.25;100349.84;5092295;28;20058;-80
2021/10/16 00:17:10;;;;;;;6.25;1.83;;;;;;;10.89;58.13;100351.56;5092501;28;20054;-80
2021/10/16 00:19:38;;;;;;;10.13;2.55;;;;;;;10.88;58.08;100358.59;5092689;28;20486;-80
2021/10/16 00:22:12;;;;;;;10.18;2.78;;;;;;;10.85;58.70;100355.25;5092237;28;20050;-80
2021/10/16 00:24:38;;;;;;;16.63;3.13;;;;;;;10.86;58.12;100354.31;5091742;28;20048;-80
2021/10/16 00:27:38;;;;;;;9.95;2.33;;;;;;;10.81;58.67;100354.56;5092264;28;20052;-80
2021/10/16 00:30:05;;;;;;;5.68;1.63;;;;;;;10.82;58.06;100357.13;5092616;28;20596;-80
2021/10/16 00:32:33;;;;;;;13.20;2.22;;;;;;;10.81;58.24;100355.41;5092808;28;20072;-80
2021/10/16 00:35:00;;;;;;;8.13;2.25;;;;;;;10.80;58.18;100352.84;5092339;28;20399;-80
2021/10/16 00:37:27;;;;;;;7.50;2.30;;;;;;;10.78;58.26;100349.44;5092376;28;20501;-80
2021/10/16 00:40:06;;;;;;;8.05;1.98;;;;;;;10.73;59.00;100362.81;5092349;28;20052;-80
2021/10/16 00:42:48;;;;;;;11.93;2.83;;;;;;;10.72;59.19;100355.03;5092148;28;20126;-80
2021/10/16 00:48:52;;;;;;;8.68;1.95;;;;;;;10.74;58.07;100354.03;5097167;28;20043;-84
2021/10/16 00:51:19;;;;;;;9.20;2.10;;;;;;;10.72;58.06;100358.47;5092073;28;20048;-79
2021/10/16 00:53:45;;;;;;;8.65;1.80;;;;;;;10.69;58.19;100356.84;5092160;28;20060;-79
2021/10/16 00:56:13;;;;;;;15.80;2.28;;;;;;;10.67;58.32;100356.09;5092230;28;20069;-79
2021/10/16 00:58:40;;;;;;;7.93;2.30;;;;;;;10.65;58.25;100359.72;5092574;28;20062;-80
2021/10/16 01:01:22;;;;;;;9.35;2.13;;;;;;;10.59;58.88;100363.50;5091899;28;20048;-80
2021/10/16 01:03:49;;;;;;;6.20;1.70;;;;;;;10.62;58.13;100357.22;5092057;28;20483;-80
2021/10/16 01:06:16;;;;;;;8.25;2.00;;;;;;;10.59;58.17;100360.00;5091745;28;20056;-80
2021/10/16 01:08:57;;;;;;;11.88;2.80;;;;;;;10.52;59.01;100357.66;5092290;28;20088;-80
2021/10/16 01:11:54;;;;;;;12.48;3.00;;;;;;;10.51;59.07;100365.63;5092152;28;20730;-80
2021/10/16 01:14:21;;;;;;;11.07;2.55;;;;;;;10.52;58.35;100352.41;5092104;28;20052;-80
2021/10/16 01:17:10;;;;;;;11.25;2.40;;;;;;;10.46;59.00;100357.09;5034677;28;20048;-80
2021/10/16 01:19:41;;;;;;;9.35;2.28;;;;;;;10.46;58.63;100351.84;5039586;28;20049;-84
2021/10/16 01:22:08;;;;;;;10.02;2.60;;;;;;;10.43;58.52;100355.41;5037911;28;20164;-84
2021/10/16 01:25:11;;;;;;;8.43;2.30;;;;;;;10.37;59.19;100351.31;5037493;28;20053;-84
2021/10/16 01:27:39;;;;;;;9.98;2.40;;;;;;;10.38;58.75;100352.16;5038485;28;20060;-79
2021/10/16 01:30:14;;;;;;;10.95;2.60;;;;;;;10.35;59.18;100353.16;5037071;28;20052;-80
2021/10/16 01:32:41;;;;;;;8.60;2.22;;;;;;;10.36;58.57;100359.28;5037002;28;20055;-80
2021/10/16 01:35:12;;;;;;;9.75;2.42;;;;;;;10.32;59.45;100348.03;5081605;28;20465;-79
2021/10/16 01:37:42;;;;;;;5.53;2.22;;;;;;;10.33;58.96;100348.88;5096815;28;20059;-84
2021/10/16 01:40:18;;;;;;;11.25;3.00;;;;;;;10.29;59.80;100349.03;5095203;28;20521;-79
2021/10/16 01:42:45;;;;;;;8.25;2.38;;;;;;;10.32;58.94;100350.66;5094778;28;20073;-79
2021/10/16 01:45:17;;;;;;;7.18;2.15;;;;;;;10.30;59.41;100348.13;5096141;28;20052;-79
2021/10/16 01:47:50;;;;;;;8.50;2.10;;;;;;;10.29;59.63;100351.66;5095221;28;20079;-80
2021/10/16 01:50:17;;;;;;;;;;;;;;;10.31;59.31;100351.59;5098551;28;20058;-80
2021/10/16 01:52:49;;;;;;;5.63;1.65;;;;;;;10.32;59.34;100352.44;5099193;28;19930;-79
2021/10/16 01:55:18;;;;;;;8.45;1.98;;;;;;;10.30;58.81;100361.28;5096686;28;20047;-81
2021/10/16 01:58:19;;;;;;;7.85;2.33;;;;;;;10.24;59.64;100351.00;5096295;28;20113;-80
2021/10/16 02:01:02;;;;;;;5.55;1.80;;;;;;;10.22;59.52;100359.91;5095326;28;20131;-79
2021/10/16 02:03:29;;;;;;;;;;;;;;;10.22;59.01;100360.78;5095451;28;20048;-79
2021/10/16 02:05:58;;;;;;;6.97;2.03;;;;;;;10.22;58.80;100358.13;5094817;28;19927;-79
2021/10/16 02:08:24;;;;;;;11.55;2.72;;;;;;;10.19;58.73;100358.28;5094613;28;20060;-80
2021/10/16 02:10:51;;;;;;;12.98;2.50;;;;;;;10.14;58.89;100350.56;5094691;28;20482;-79
2021/10/16 02:13:37;;;;;;;12.88;2.88;;;;;;;10.07;59.76;100353.56;5095059;28;20502;-79
2021/10/16 02:16:04;;;;;;;9.80;2.30;;;;;;;10.09;59.07;100357.81;5094541;28;20060;-79
2021/10/16 02:18:31;;;;;;;10.70;3.08;;;;;;;10.05;59.21;100358.88;5094601;28;20052;-79
2021/10/16 02:21:03;;;;;;;7.55;2.45;;;;;;;10.02;60.04;100357.25;5094878;28;20067;-84
2021/10/16 02:23:29;;;;;;;7.63;2.78;;;;;;;10.03;59.43;100358.94;5095396;28;20052;-79
2021/10/16 02:25:56;;;;;;;9.88;2.70;;;;;;;10.01;59.45;100358.19;5094383;28;20055;-79
2021/10/16 02:28:31;;;;;;;7.18;2.35;;;;;;;9.98;59.93;100363.56;5094477;28;20052;-84
2021/10/16 02:31:01;;;;;;;9.45;2.63;;;;;;;10.00;59.43;100364.38;5094981;28;20044;-79
2021/10/16 02:33:35;;;;;;;7.20;2.47;;;;;;;9.95;60.02;100361.09;5094509;28;20044;-79
2021/10/16 02:36:02;;;;;;;10.18;2.83;;;;;;;9.96;59.36;100357.53;5095100;28;20052;-79
2021/10/16 02:38:31;;;;;;;9.48;2.78;;;;;;;9.94;60.16;100366.44;5094383;28;20056;-79
2021/10/16 02:40:58;;;;;;;9.15;2.38;;;;;;;9.94;59.60;100367.25;5095564;28;20079;-80
2021/10/16 02:43:29;;;;;;;6.47;2.30;;;;;;;9.92;60.31;100371.75;5094058;28;20055;-80
2021/10/16 02:45:55;;;;;;;12.25;2.83;;;;;;;9.92;59.86;100369.13;5095179;28;20044;-79
2021/10/16 02:48:22;;;;;;;9.55;2.72;;;;;;;9.91;59.75;100370.06;5094342;28;20101;-80
2021/10/16 02:51:14;;;;;;;11.80;2.90;;;;;;;9.86;60.75;100367.63;5094186;28;20055;-80
2021/10/16 02:54:39;;;;;;;9.38;2.40;;;;;;;9.84;60.47;100369.47;5096050;28;20048;-84
2021/10/16 02:57:05;;;;;;;7.60;2.15;;;;;;;9.88;59.63;100370.19;5092309;28;20058;-80
2021/10/16 02:59:32;;;;;;;9.90;2.65;;;;;;;9.87;59.99;100382.47;5095005;28;20056;-80
2021/10/16 03:02:07;;;;;;;6.80;1.92;;;;;;;9.83;60.55;100373.00;5093997;28;20052;-80
2021/10/16 03:04:34;;;;;;;8.43;2.03;;;;;;;9.84;60.06;100369.47;5093576;28;20056;-80
2021/10/16 03:07:00;;;;;;;7.25;2.45;;;;;;;9.84;59.93;100376.50;5094040;28;20123;-84
2021/10/16 03:09:27;;;;;;;6.05;2.13;;;;;;;9.83;60.12;100377.41;5094831;28;20051;-85
2021/10/16 03:15:22;;;;;;;5.63;1.55;;;;;;;9.81;61.07;100371.34;5090027;28;20058;-79
2021/10/16 03:17:48;;;;;;;7.07;1.80;;;;;;;9.83;59.99;100366.91;5094112;28;20048;-80
2021/10/16 03:20:26;;;;;;;7.57;1.58;;;;;;;9.80;61.12;100367.91;5100253;28;20066;-80
2021/10/16 03:22:53;;;;;;;4.57;1.48;;;;;;;9.85;60.39;100367.66;5093693;28;20591;-80
2021/10/16 03:25:19;;;;;;;8.05;1.50;;;;;;;9.85;60.42;100373.81;5093432;28;20063;-80
2021/10/16 03:28:20;;;;;;;6.75;1.67;;;;;;;9.82;61.34;100373.94;5093395;28;20066;-85
2021/10/16 03:31:41;;;;;;;5.18;1.15;;;;;;;9.84;61.16;100369.47;5098063;28;20048;-84
2021/10/16 03:34:20;;;;;;;7.13;1.55;;;;;;;9.87;60.92;100374.56;5023120;28;20061;-79
2021/10/16 03:36:46;;;;;;;6.38;1.92;;;;;;;9.90;60.26;100368.31;5035687;28;20053;-79
2021/10/16 03:39:13;;;;;;;4.32;1.67;;;;;;;9.90;60.37;100365.69;5035580;28;20052;-80
2021/10/16 03:45:23;;;;;;;5.97;1.55;;;;;;;9.87;61.15;100368.47;5066197;28;20048;-79
2021/10/16 03:47:49;;;;;;;3.00;1.30;;;;;;;9.90;60.33;100371.81;5097562;28;20109;-80
2021/10/16 03:50:17;;;;;;;8.27;1.70;;;;;;;9.89;60.55;100364.84;5111395;22;20028;-87
2021/10/16 03:52:44;;;;;;;6.45;1.48;;;;;;;9.89;60.53;100369.25;5071255;28;20063;-87
2021/10/16 03:55:10;;;;;;;5.50;1.73;;;;;;;9.90;60.79;100365.69;5052154;28;20118;-87
2021/10/16 03:57:37;;;;;;;5.78;1.60;;;;;;;9.91;60.77;100370.06;5052531;28;20060;-87
2021/10/16 04:00:11;;;;;;;4.43;1.50;;;;;;;9.92;60.79;100369.13;5054068;28;20399;-87
2021/10/16 04:02:40;;;;;;;5.97;1.65;;;;;;;9.94;60.86;100371.69;5059251;28;20106;-87
2021/10/16 04:05:07;;;;;;;7.18;1.80;;;;;;;9.96;60.87;100378.59;5070358;28;20461;-87
2021/10/16 04:07:33;;;;;;;3.58;1.45;;;;;;;9.98;60.96;100370.63;5070914;28;20045;-86
2021/10/16 04:10:00;;;;;;;6.47;1.90;;;;;;;10.00;61.48;100364.38;5071504;28;20057;-87
2021/10/16 04:12:27;;;;;;;10.50;1.92;;;;;;;10.02;61.28;100372.19;5071251;28;20102;-85
2021/10/16 04:14:53;;;;;;;4.65;1.25;;;;;;;10.05;61.36;100372.03;5070374;28;20053;-87
2021/10/16 04:17:20;;;;;;;7.28;1.90;;;;;;;10.08;61.43;100365.78;5057167;28;20052;-87
2021/10/16 04:19:46;;;;;;;9.65;2.00;;;;;;;10.10;61.44;100370.06;5052675;28;20049;-88
2021/10/16 04:22:17;;;;;;;4.95;1.80;;;;;;;10.14;61.27;100379.50;5050950;28;20048;-87
2021/10/16 04:24:43;;;;;;;6.07;1.90;;;;;;;10.16;61.17;100379.44;5050204;28;20518;-88
2021/10/16 04:27:11;;;;;;;6.20;1.80;;;;;;;10.17;61.15;100374.13;5051246;28;20049;-88
2021/10/16 04:29:37;;;;;;;11.02;2.22;;;;;;;10.19;60.97;100384.59;5052767;28;20536;-86
2021/10/16 04:32:04;;;;;;;7.32;1.65;;;;;;;10.19;61.15;100381.94;5052138;28;20483;-88
2021/10/16 04:34:31;;;;;;;9.63;2.30;;;;;;;10.19;60.99;100374.06;5050442;28;20057;-86
2021/10/16 04:36:57;;;;;;;9.98;2.47;;;;;;;10.18;61.14;100377.63;5051714;28;20060;-88
2021/10/16 04:39:27;;;;;;;9.88;2.13;;;;;;;10.18;61.23;100377.63;5050682;28;20080;-88
2021/10/16 04:41:53;;;;;;;10.98;2.75;;;;;;;10.20;61.41;100383.66;5052048;28;20061;-87
2021/10/16 04:44:20;;;;;;;8.15;2.40;;;;;;;10.22;61.24;100383.59;5052662;28;20086;-87
2021/10/16 04:46:47;;;;;;;10.10;2.72;;;;;;;10.23;61.40;100380.88;5067353;28;20082;-88
2021/10/16 04:49:13;;;;;;;8.30;2.58;;;;;;;10.25;61.43;100379.03;5070098;28;20056;-87
2021/10/16 04:51:42;;;;;;;6.95;2.30;;;;;;;10.27;61.67;100385.09;5071624;28;20056;-87
2021/10/16 04:54:08;;;;;;;9.40;1.98;;;;;;;10.30;61.58;100384.09;5075118;28;20049;-88
2021/10/16 04:56:35;;;;;;;8.05;2.40;;;;;;;10.32;61.15;100381.38;5074394;28;20048;-90
2021/10/16 04:59:02;;;;;;;7.75;2.30;;;;;;;10.33;61.52;100381.31;5067508;28;20522;-87
2021/10/16 05:01:29;;;;;;;9.73;2.35;;;;;;;10.35;61.44;100387.34;5054392;28;20060;-88
2021/10/16 05:03:55;;;;;;;6.07;2.13;;;;;;;10.38;61.52;100389.00;5053875;28;20044;-87
2021/10/16 05:06:22;;;;;;;11.30;2.25;;;;;;;10.38;61.53;100384.59;5055246;28;20076;-87
2021/10/16 05:08:49;;;;;;;6.88;2.50;;;;;;;10.40;61.30;100392.41;5054450;28;20110;-87
2021/10/16 05:11:15;;;;;;;7.88;2.60;;;;;;;10.40;61.20;100381.91;5055715;28;20083;-87
2021/10/16 05:13:43;;;;;;;5.85;2.05;;;;;;;10.40;61.35;100381.91;5067350;28;20058;-87
2021/10/16 05:16:09;;;;;;;6.68;2.03;;;;;;;10.40;61.43;100384.53;5075506;28;20071;-87
2021/10/16 05:18:36;;;;;;;7.57;2.13;;;;;;;10.38;61.23;100378.47;5075187;28;20055;-87
2021/10/16 05:21:04;;;;;;;7.53;2.47;;;;;;;10.38;61.29;100383.72;5056996;28;20056;-87
2021/10/16 05:23:33;;;;;;;10.13;2.50;;;;;;;10.37;61.21;100382.03;5054900;28;20103;-88
2021/10/16 05:26:00;;;;;;;8.82;2.28;;;;;;;10.36;61.19;100369.81;5055240;28;20053;-88
2021/10/16 05:28:27;;;;;;;6.80;2.67;;;;;;;10.35;60.95;100374.19;5053765;28;20151;-88
2021/10/16 05:30:56;;;;;;;7.88;2.00;;;;;;;10.32;61.31;100373.50;5055489;28;20060;-88
2021/10/16 05:33:32;;;;;;;10.20;2.20;;;;;;;10.30;60.86;100370.94;5056924;28;20044;-87
2021/10/16 05:35:58;;;;;;;6.20;1.75;;;;;;;10.26;60.98;100375.50;5075169;28;20057;-87
2021/10/16 05:38:26;;;;;;;7.70;1.95;;;;;;;10.22;60.69;100378.31;5074303;28;20110;-87
2021/10/16 05:40:53;;;;;;;7.13;2.10;;;;;;;10.18;61.04;100377.63;5075121;28;20056;-87
2021/10/16 05:43:19;;;;;;;5.47;1.60;;;;;;;10.13;60.89;100383.06;5075278;28;20557;-87
2021/10/16 05:45:46;;;;;;;7.47;1.67;;;;;;;10.09;61.06;100376.25;5075468;28;20049;-88
2021/10/16 05:48:13;;;;;;;7.25;1.73;;;;;;;10.05;61.02;100379.94;5072971;28;20072;-87
2021/10/16 05:50:40;;;;;;;5.78;1.60;;;;;;;10.02;61.17;100380.09;5054429;28;20556;-87
2021/10/16 05:53:07;;;;;;;4.93;1.50;;;;;;;9.99;61.32;100375.78;5056248;28;20048;-87
2021/10/16 05:55:33;;;;;;;7.75;1.60;;;;;;;9.98;61.51;100384.63;5053102;28;20045;-86
2021/10/16 05:58:00;;;;;;;5.68;1.52;;;;;;;9.97;61.71;100372.41;5055613;28;20123;-86
2021/10/16 06:00:27;;;;;;;7.75;1.60;;;;;;;9.97;61.70;100377.66;5058555;28;20045;-88
2021/10/16 06:02:54;;;;;;;8.18;1.63;;;;;;;9.98;61.97;100387.25;5057807;28;20083;-87
2021/10/16 06:05:20;;;;;;;3.95;1.20;;;;;;;10.00;62.02;100385.41;5054147;28;20052;-87
2021/10/16 06:07:47;;;;;;;5.10;1.33;;;;;;;10.02;61.81;100390.63;5054792;28;20503;-87
2021/10/16 06:10:15;;;;;;;5.38;1.20;;;;;;;10.04;61.84;100387.00;5058588;28;20056;-85
2021/10/16 06:12:52;;;;;;;4.80;1.38;;;;;;;10.07;62.54;100380.72;5079365;28;20059;-86
2021/10/16 06:15:24;;;;;;;5.40;1.55;;;;;;;10.12;62.27;100393.66;5079151;28;20052;-84
2021/10/16 06:17:52;;;;;;;8.03;1.57;;;;;;;10.17;62.28;100387.28;5077592;28;20048;-85
2021/10/16 06:20:19;;;;;;;4.60;1.05;;;;;;;10.20;62.64;100388.91;5077421;28;20294;-85
2021/10/16 06:22:49;;;;;;;6.68;1.42;;;;;;;10.25;62.61;100381.66;5075305;28;20085;-84
2021/10/16 06:25:16;;;;;;;6.25;1.42;;;;;;;10.32;62.50;100386.66;5075628;28;20529;-84
2021/10/16 06:27:42;;;;;;;8.40;1.30;;;;;;;10.36;62.59;100386.44;5075721;28;20049;-85
2021/10/16 06:30:09;;;;;;;8.60;1.63;;;;;;;10.41;62.67;100387.09;5074901;28;20056;-85
2021/10/16 06:32:36;;;;;;;6.45;1.40;;;;;;;10.48;62.56;100394.72;5077606;28;20048;-85
2021/10/16 06:35:05;;;;;;;10.63;1.55;;;;;;;10.52;62.58;100391.03;5076254;28;20094;-85
2021/10/16 06:37:31;;;;;;;9.50;2.30;;;;;;;10.58;62.39;100392.53;5060413;28;20129;-85
2021/10/16 06:39:58;;;;;;;9.02;2.22;;;;;;;10.62;62.44;100397.56;5076201;28;20059;-85
2021/10/16 06:42:25;;;;;;;8.18;2.20;;;;;;;10.68;62.32;100394.66;5075425;28;20049;-85
2021/10/16 06:44:51;;;;;;;18.17;5.68;;;;;;;10.71;62.22;100403.31;5073158;28;20053;-86
2021/10/16 06:47:18;;;;;;;11.30;5.07;;;;;;;10.75;62.30;100397.84;5073651;28;20129;-85
2021/10/16 06:49:45;;;;;;;7.63;3.67;;;;;;;10.79;62.21;100398.53;5076597;28;20044;-85
2021/10/16 06:52:18;;;;;;;10.43;3.05;;;;;;;10.84;62.11;100395.69;5080340;28;20033;-85
2021/10/16 06:54:44;;;;;;;;;;;;;;;10.89;62.18;100404.22;5074699;28;20052;-85
2021/10/16 06:57:11;;;;;;;5.38;2.00;;;;;;;10.97;61.53;100403.84;5074580;28;19931;-85
2021/10/16 06:59:38;;;;;;;7.97;2.10;;;;;;;11.00;61.71;100408.97;5074535;28;20048;-86
2021/10/16 07:02:14;;;;;;;12.07;1.90;;;;;;;11.00;62.13;100415.13;5073361;28;20056;-86
2021/10/16 07:04:41;;;;;;;5.13;1.73;;;;;;;11.05;61.94;100415.75;5074030;28;20560;-85
2021/10/16 07:07:08;;;;;;;7.25;1.88;;;;;;;11.10;61.73;100414.66;5076603;28;20561;-86
2021/10/16 07:09:35;;;;;;;4.80;1.55;;;;;;;11.13;61.75;100412.72;5073794;28;20064;-87
2021/10/16 07:12:02;;;;;;;8.23;3.10;;;;;;;11.15;61.53;100413.53;5077509;28;20048;-86
2021/10/16 07:14:28;;;;;;;9.45;3.28;;;;;;;11.15;61.14;100412.66;5068965;28;20061;-85
2021/10/16 07:16:59;;;;;;;9.07;3.30;;;;;;;11.10;61.05;100422.56;5055579;28;20060;-88
2021/10/16 07:19:29;;;;;;;9.50;3.45;;;;;;;11.02;60.53;100421.16;5057737;28;20476;-87
2021/10/16 07:21:55;;;;;;;11.02;3.50;;;;;;;10.94;60.28;100434.69;5055170;28;20060;-90
2021/10/16 07:24:22;;;;;;;8.68;3.20;;;;;;;10.84;60.32;100427.31;5054236;28;20056;-92
2021/10/16 07:26:49;;;;;;;10.45;3.13;;;;;;;10.72;60.18;100434.00;5056344;28;20519;-92
2021/10/16 07:29:22;;;;;;;6.78;3.08;;;;;;;10.60;60.50;100435.41;5055508;28;20052;-89
2021/10/16 07:31:56;;;;;;;9.52;3.55;;;;;;;10.45;61.01;100440.47;5055759;28;20065;-87
2021/10/16 07:34:22;;;;;;;7.82;3.03;;;;;;;10.35;60.70;100453.16;5054897;28;20045;-85
2021/10/16 07:36:49;;;;;;;5.95;3.10;;;;;;;10.24;60.91;100443.09;5053347;28;20052;-88
2021/10/16 07:39:16;;;;;;;8.00;2.80;;;;;;;10.15;61.13;100449.66;5052931;28;20488;-88
2021/10/16 07:41:46;;;;;;;7.35;3.10;;;;;;;10.07;61.44;100437.75;5050226;28;20057;-87
2021/10/16 07:44:15;;;;;;;7.57;3.13;;;;;;;10.00;61.87;100448.53;5067512;28;20052;-87
2021/10/16 07:46:43;;;;;;;7.70;3.05;;;;;;;9.97;61.99;100440.78;5051790;28;20111;-87
2021/10/16 07:49:11;;;;;;;12.50;3.92;;;;;;;9.95;62.38;100445.25;5064676;28;20148;-88
2021/10/16 07:51:37;;;;;;;7.57;3.30;;;;;;;9.95;62.21;100444.41;5072154;28;20048;-86
2021/10/16 07:54:04;;;;;;;6.32;3.28;;;;;;;9.93;62.33;100436.56;5071186;28;20052;-85
2021/10/16 07:56:31;;;;;;;6.13;2.97;;;;;;;9.93;62.49;100441.81;5070950;28;20110;-85
2021/10/16 07:58:57;;;;;;;8.00;3.30;;;;;;;9.93;62.45;100441.81;5072390;28;20575;-88
2021/10/16 08:01:24;;;;;;;8.73;2.80;;;;;;;9.93;62.54;100435.69;5071732;28;20060;-88
2021/10/16 08:03:54;;;;;;;8.23;3.10;;;;;;;9.91;62.66;100444.53;5070723;28;20083;-88
2021/10/16 08:06:20;;;;;;;7.03;3.10;;;;;;;9.93;62.59;100447.09;5071570;28;20502;-84
2021/10/16 08:08:47;;;;;;;6.93;3.05;;;;;;;9.95;62.31;100445.25;5072362;28;20446;-84
2021/10/16 08:11:13;;;;;;;9.68;2.80;;;;;;;9.99;62.65;100446.81;5072631;28;20457;-85
2021/10/16 08:13:40;;;;;;;10.23;3.22;;;;;;;10.05;62.91;100456.22;5071448;28;20057;-85
2021/10/16 08:16:07;;;;;;;6.85;2.55;;;;;;;10.12;63.01;100460.28;5071718;28;20049;-85
2021/10/16 08:18:33;;;;;;;7.57;3.30;;;;;;;10.21;63.12;100460.81;5055138;28;20090;-84
2021/10/16 08:21:00;;;;;;;16.63;3.55;;;;;;;10.29;62.83;100459.53;5052207;28;20053;-86
2021/10/16 08:23:27;;;;;;;6.97;3.30;;;;;;;10.37;62.60;100455.72;5050986;28;20471;-83
2021/10/16 08:25:53;;;;;;;9.43;3.15;;;;;;;10.42;62.42;100444.06;5051050;28;20117;-84
2021/10/16 08:28:20;;;;;;;8.95;3.00;;;;;;;10.46;62.35;100444.81;5052427;28;20057;-86
2021/10/16 08:30:51;;;;;;;9.18;3.13;;;;;;;10.50;62.16;100445.53;5060344;28;20083;-86
2021/10/16 08:33:20;;;;;;;5.40;3.13;;;;;;;10.52;62.08;100455.06;5072762;28;20491;-88
2021/10/16 08:35:47;;;;;;;9.23;3.75;;;;;;;10.54;62.14;100454.97;5071954;28;20061;-86
2021/10/16 08:38:15;;;;;;;8.13;3.67;;;;;;;10.54;62.27;100461.09;5070885;28;20053;-85
2021/10/16 08:40:43;;;;;;;10.93;3.20;;;;;;;10.55;62.24;100454.91;5071489;28;20500;-86
2021/10/16 08:43:10;;;;;;;8.30;3.10;;;;;;;10.58;62.19;100463.59;5072253;28;20102;-85
2021/10/16 08:45:44;;;;;;;7.45;2.78;;;;;;;10.57;62.27;100461.91;5070744;28;20458;-90
2021/10/16 08:48:15;;;;;;;7.95;3.05;;;;;;;10.59;62.21;100462.66;5071792;28;20167;-85
2021/10/16 08:50:48;;;;;;;8.27;3.53;;;;;;;10.58;62.68;100460.97;5071237;28;20472;-88
2021/10/16 08:53:15;;;;;;;6.82;2.67;;;;;;;10.60;62.31;100461.75;5071234;28;20056;-88
2021/10/16 08:55:43;;;;;;;8.05;3.00;;;;;;;10.62;62.39;100454.63;5071220;28;20048;-85
2021/10/16 08:58:09;;;;;;;12.95;3.30;;;;;;;10.66;62.53;100461.47;5069140;28;20056;-86
2021/10/16 09:04:00;;;;;;;10.98;3.58;;;;;;;10.71;62.16;100458.63;5052105;28;20049;-84
2021/10/16 09:06:28;;;;;;;13.02;2.85;;;;;;;10.72;62.38;100458.53;5050653;28;20057;-85
2021/10/16 09:08:59;;;;;;;10.48;3.38;;;;;;;10.73;62.70;100462.88;5053072;28;20057;-83
2021/10/16 09:11:38;;;;;;;6.63;3.15;;;;;;;10.77;62.68;100459.19;5052551;28;20060;-89
2021/10/16 09:14:10;;;;;;;8.95;2.85;;;;;;;10.82;62.75;100464.25;5051271;28;20068;-86
2021/10/16 09:16:41;;;;;;;7.18;2.78;;;;;;;10.88;62.77;100466.56;5051886;28;20053;-85
2021/10/16 09:19:29;;;;;;;12.73;3.40;;;;;;;10.92;62.76;100467.31;5050945;28;20076;-87
2021/10/16 09:22:06;;;;;;;11.75;3.08;;;;;;;11.00;62.58;100465.16;5052688;28;20052;-87
2021/10/16 09:24:44;;;;;;;10.07;3.75;;;;;;;11.04;62.85;100466.72;5051183;28;20060;-87
2021/10/16 09:27:14;;;;;;;10.45;3.70;;;;;;;11.13;62.61;100470.69;5053353;28;20118;-85
2021/10/16 09:29:50;;;;;;;8.25;2.90;;;;;;;11.16;62.54;100472.31;5051729;28;20549;-86
2021/10/16 09:32:23;;;;;;;8.30;2.50;;;;;;;11.21;62.57;100475.59;5052585;28;20454;-84
2021/10/16 09:34:59;;;;;;;8.00;2.70;;;;;;;11.24;62.37;100464.91;5067744;28;20056;-85
2021/10/16 09:37:26;;;;;;;7.65;2.92;;;;;;;11.32;62.04;100464.53;5074343;28;20453;-85
2021/10/16 09:39:54;;;;;;;9.85;2.45;;;;;;;11.34;62.08;100463.53;5074545;28;20082;-85
2021/10/16 09:42:30;;;;;;;12.43;3.53;;;;;;;11.35;62.25;100472.28;5075662;28;20053;-88
2021/10/16 09:45:06;;;;;;;9.88;2.63;;;;;;;11.39;62.40;100470.34;5074001;28;20048;-90
2021/10/16 09:47:33;;;;;;;9.10;2.58;;;;;;;11.45;62.09;100464.78;5072600;28;20495;-85
2021/10/16 09:50:07;;;;;;;11.43;2.83;;;;;;;11.48;62.18;100464.66;5055577;28;20053;-87
2021/10/16 09:52:41;;;;;;;8.85;2.65;;;;;;;11.54;62.22;100460.81;5055298;28;20053;-86
2021/10/16 09:55:12;;;;;;;7.35;2.35;;;;;;;11.58;62.27;100459.75;5053955;28;20044;-85
2021/10/16 09:57:41;;;;;;;6.68;2.67;;;;;;;11.64;62.10;100466.50;5056319;28;20067;-85
2021/10/16 10:00:08;;;;;;;9.88;3.15;;;;;;;11.72;62.05;100472.25;5068142;28;20052;-85
2021/10/16 10:02:35;;;;;;;8.77;2.90;;;;;;;11.78;62.19;100464.00;5076253;28;20449;-87
2021/10/16 10:05:04;;;;;;;8.07;2.65;;;;;;;11.84;62.16;100468.13;5074404;28;20044;-88
2021/10/16 10:07:32;;;;;;;8.00;2.47;;;;;;;11.92;62.15;100459.84;5075644;28;20056;-85
2021/10/16 10:09:59;;;;;;;10.07;2.72;;;;;;;12.01;62.42;100475.19;5075487;28;20053;-85
2021/10/16 10:12:27;;;;;;;5.25;1.92;;;;;;;12.09;62.09;100473.06;5076426;28;20051;-88
2021/10/16 10:15:00;;;;;;;9.88;2.10;;;;;;;12.19;61.95;100475.22;5075741;28;20412;-84
2021/10/16 10:17:34;;;;;;;7.07;2.22;;;;;;;12.29;61.85;100475.59;5075456;28;20519;-88
2021/10/16 10:20:10;;;;;;;8.20;2.65;;;;;;;12.37;61.09;100479.50;5075737;28;20052;-87
2021/10/16 10:22:40;;;;;;;7.60;3.08;;;;;;;12.47;61.24;100479.88;5073985;28;20109;-86
2021/10/16 10:25:21;;;;;;;10.90;2.60;;;;;;;12.53;60.90;100481.34;5073477;28;20048;-86
2021/10/16 10:27:47;;;;;;;13.07;3.67;;;;;;;12.62;60.94;100483.50;5057160;28;20048;-86
2021/10/16 10:30:36;;;;;;;10.10;2.50;;;;;;;12.63;61.10;100477.25;5055234;28;20106;-86
2021/10/16 10:33:15;;;;;;;10.15;2.67;;;;;;;12.72;60.52;100477.69;5054763;28;20045;-89
2021/10/16 10:35:58;;;;;;;14.68;2.83;;;;;;;12.81;60.39;100481.63;5053834;28;20041;-87
2021/10/16 10:38:42;;;;;;;7.93;2.55;;;;;;;12.89;60.37;100474.13;5053973;28;20053;-86
2021/10/16 10:41:29;;;;;;;14.50;3.22;;;;;;;12.95;60.54;100471.16;5066245;28;20453;-86
2021/10/16 10:43:56;;;;;;;8.68;2.97;;;;;;;13.08;60.66;100473.13;5073476;28;20052;-86
2021/10/16 10:46:28;;;;;;;7.97;2.33;;;;;;;13.14;60.54;100472.75;5074038;28;20052;-86
2021/10/16 10:49:07;;;;;;;7.38;2.50;;;;;;;13.23;60.74;100474.88;5073760;28;20052;-85
2021/10/16 10:51:38;;;;;;;8.77;2.30;;;;;;;13.38;60.65;100472.31;5073567;28;20075;-86
2021/10/16 10:54:30;;;;;;;8.82;2.75;;;;;;;13.49;59.79;100472.56;5073582;28;20454;-89
2021/10/16 10:56:58;;;;;;;9.10;3.00;;;;;;;13.65;60.07;100466.41;5054150;28;20053;-86
2021/10/16 10:59:25;;;;;;;10.30;3.25;;;;;;;13.76;59.78;100473.69;5054286;28;20044;-85
2021/10/16 11:02:01;;;;;;;10.52;3.15;;;;;;;13.83;59.26;100469.72;5053865;28;20072;-86
2021/10/16 11:04:43;;;;;;;9.27;3.05;;;;;;;13.90;59.11;100464.91;5053216;28;20079;-85
2021/10/16 11:07:14;;;;;;;6.18;2.38;;;;;;;14.00;58.60;100466.09;5053297;28;20462;-86
2021/10/16 11:09:41;;;;;;;8.30;2.70;;;;;;;14.07;58.60;100466.56;5053588;28;20522;-86
2021/10/16 11:12:09;;;;;;;8.73;2.55;;;;;;;14.12;58.12;100474.22;5052877;28;20110;-87
2021/10/16 11:14:38;;;;;;;8.23;2.72;;;;;;;14.15;57.86;100474.91;5052179;28;20075;-85
2021/10/16 11:17:07;;;;;;;8.15;3.00;;;;;;;14.18;57.49;100461.50;5052782;28;20447;-86
2021/10/16 11:19:55;;;;;;;7.35;3.03;;;;;;;14.17;56.88;100469.53;5054666;28;20045;-86
2021/10/16 11:22:39;;;;;;;9.65;2.85;;;;;;;14.23;57.16;100466.47;5053541;28;20049;-85
2021/10/16 11:25:06;;;;;;;;;;;;;;;14.24;57.67;100468.19;5052548;28;20103;-86
2021/10/16 11:27:33;;;;;;;9.68;2.35;;;;;;;14.31;57.31;100463.34;5053959;28;19925;-86
2021/10/16 11:30:02;;;;;;;7.50;2.35;;;;;;;14.32;57.62;100467.72;5053955;28;20056;-86
2021/10/16 11:32:31;;;;;;;9.02;2.78;;;;;;;14.31;57.38;100458.06;5054533;28;20048;-85
2021/10/16 11:35:10;;;;;;;9.80;2.90;;;;;;;14.31;56.93;100466.88;5059853;28;20040;-86
2021/10/16 11:37:40;;;;;;;9.90;2.85;;;;;;;14.35;56.79;100456.09;5053241;28;20103;-86
2021/10/16 11:40:29;;;;;;;9.07;2.42;;;;;;;14.36;56.67;100458.66;5052573;28;20462;-87
2021/10/16 11:43:01;;;;;;;6.40;2.47;;;;;;;14.39;56.21;100462.91;5051487;28;20053;-86
2021/10/16 11:45:35;;;;;;;6.80;2.63;;;;;;;14.38;56.13;100461.19;5051720;28;20107;-86
2021/10/16 11:48:04;;;;;;;8.95;2.75;;;;;;;14.38;56.27;100459.41;5053797;28;20060;-86
2021/10/16 11:50:37;;;;;;;9.65;2.75;;;;;;;14.35;55.65;100456.94;5067184;28;20060;-86
2021/10/16 11:53:40;;;;;;;8.68;2.70;;;;;;;14.30;56.12;100459.88;5072816;28;20457;-86
2021/10/16 11:56:13;;;;;;;10.50;3.00;;;;;;;14.30;56.45;100457.22;5073559;28;20053;-86
2021/10/16 11:58:41;;;;;;;10.63;2.85;;;;;;;14.31;56.23;100455.41;5074078;28;20051;-88